Strona główna
METAR-TAF:

METAR-TAF

Lotnisko :

Port lotniczy Kapsztad

Kapsztad, Południowa Afryka

Szerokość geograficzna: 33-59S, Długość geograficzna: 018-36E, wysokość: 42 m

Aktualna obserwacja pogody

Raport powstał 30 minut temu, godzina 18:00 UTC
Wiatr 12 kt od północno-północny zachód
Temperatura 14°C
Wilgotność 88%
Ciśnienie 1022 hPa
Widzialność 10 km lub więcej
Mało chmury na wysokości 2000 ft
Rozproszone chmury na wysokości 5000 ft

METAR: FACT 191800Z 34012KT 9999 FEW020 SCT050 14/12 Q1022 NOSIG

czas: 20:30 (18:30 UTC)

Prognoza

Raport powstał 2 godziny i 30 minut temu, godzina 16:00 UTC
Prognoza ważna od 19 godzina 18 UTC do 20 godzina 24 UTC
Wiatr 8 kt od północ
Widzialność 10 km lub więcej
Rozproszone chmury na wysokości 2500 ft
Od 20 godzina 0800 UTC
Wiatr 10 kt od północ
Widzialność 10 km lub więcej
Brak chmur poniżej 1500 m i brak chmur cumulonimbus

TAF: FACT 191600Z 1918/2024 36008KT 9999 SCT025 FM200800 36010KT CAVOK TX18/2012Z TN10/2006Z

Obserwacja i prognoza pogody dla ponad 4000 lotnisk (raport METAR i TAF).

Dostępne stacje oznaczono żółtymi i czerwonymi punktami na mapie.

Najedź kursorem aby zobaczyć nazwę stacji.

Kliknij aby zobaczyć obserwacje i prognozy pogody.

Aby zmienić mapę: kliknij na zielony przycisk z czarnym krzyżykiem, aby powiększyć; na zielony przycisk z myślnikiem, aby pomniejszyć; na zielone strzałki, aby przejść do map sąsiednich.


METAR-TAF: